This is the latest recevied weather packets stored in our database for station/object KB5DPX. If no packets are shown the sender has not sent any weather packets the latest 1 day(s).
| Time | Temp. | Humidity | Pressure | Rain* | Wind** | Luminosity | Snow |
|---|---|---|---|---|---|---|---|
| 1836274559 | 14.44° C | 87% | 1023.5 hPa | 0 mm | 0 m/s | 0 W/m² | - |
| 1836274410 | 14.44° C | 85% | 1023.3 hPa | 0 mm | 0 m/s | 0 W/m² | - |
| 1836274272 | 14.44° C | 87% | 1023.5 hPa | 0 mm | 0 m/s | 0 W/m² | - |
| 1836274123 | 14.44° C | 86% | 1023.3 hPa | 0 mm | 0 m/s | 0 W/m² | - |
| 1836273957 | 14.44° C | 87% | 1023.3 hPa | 0 mm | 0 m/s | 0 W/m² | - |
| 1778047658 | 2.78° C | 72% | 1011.6 hPa | 0 mm | 2.24 m/s, 341° | 0 W/m² | - |
| 1778047343 | 2.78° C | 71% | 1011.6 hPa | 0 mm | 2.24 m/s, 335° | 0 W/m² | - |
| 1778047062 | 2.78° C | 72% | 1011.7 hPa | 0 mm | 2.24 m/s, 350° | 0 W/m² | - |
| 1778046766 | 3.33° C | 72% | 1011.6 hPa | 0 mm | 2.24 m/s, 360° | 0 W/m² | - |
| 1778046450 | 3.33° C | 71% | 1011.6 hPa | 0 mm | 2.24 m/s, 355° | 0 W/m² | - |
| 1778046163 | 3.33° C | 72% | 1011.6 hPa | 0 mm | 1.34 m/s, 355° | 0 W/m² | - |
| 1778045846 | 3.33° C | 72% | 1011.6 hPa | 0 mm | 1.79 m/s, 345° | 0 W/m² | - |
| 1778045562 | 3.33° C | 71% | 1011.6 hPa | 0 mm | 2.68 m/s, 344° | 0 W/m² | - |
| 1778045258 | 3.33° C | 71% | 1011.7 hPa | 0 mm | 0 m/s | 0 W/m² | - |
| 1778044959 | 3.33° C | 71% | 1011.6 hPa | 0 mm | 0 m/s | 0 W/m² | - |
| 1778044663 | 3.33° C | 71% | 1011.4 hPa | 0 mm | 0 m/s | 0 W/m² | - |
| 1778044366 | 3.33° C | 71% | 1011.4 hPa | 0 mm | 0 m/s | 0 W/m² | - |
| 1778044051 | 3.33° C | 71% | 1011.4 hPa | 0 mm | 0 m/s | 0 W/m² | - |
| 1778043764 | 3.33° C | 71% | 1011.2 hPa | 0 mm | 0 m/s | 0 W/m² | - |
| 1778043458 | 3.33° C | 70% | 1011.3 hPa | 0 mm | 0 m/s | 0 W/m² | - |
| 1778043145 | 3.33° C | 70% | 1011.3 hPa | 0 mm | 0 m/s | 0 W/m² | - |
| 1778042854 | 3.33° C | 71% | 1011.3 hPa | 0 mm | 0 m/s | 0 W/m² | - |
| 1778042540 | 3.33° C | 70% | 1011.2 hPa | 0 mm | 0.45 m/s, 30° | 0 W/m² | - |
| 1778042255 | 3.33° C | 70% | 1011.2 hPa | 0 mm | 1.34 m/s, 30° | 0 W/m² | - |
| 1778041962 | 3.33° C | 69% | 1011.2 hPa | 0 mm | 0.89 m/s, 31° | 0 W/m² | - |
* Rain latest hour (hover to see other rain measurements)
** Current wind speed in m/s (hover to see current wind gust speed)